sensor_id;sensor_type;location;lat;lon;timestamp;temperature;humidity
68177;DHT22;56478;50.982;7.032;2023-04-26T00:01:41;5.71;74.48
68177;DHT22;56478;50.982;7.032;2023-04-26T00:04:07;5.66;74.93
68177;DHT22;56478;50.982;7.032;2023-04-26T00:06:33;5.69;75.09
68177;DHT22;56478;50.982;7.032;2023-04-26T00:08:59;5.65;75.21
68177;DHT22;56478;50.982;7.032;2023-04-26T00:11:24;5.65;74.99
68177;DHT22;56478;50.982;7.032;2023-04-26T00:13:50;5.66;74.64
68177;DHT22;56478;50.982;7.032;2023-04-26T00:16:16;5.54;74.43
68177;DHT22;56478;50.982;7.032;2023-04-26T00:18:43;5.52;75.88
68177;DHT22;56478;50.982;7.032;2023-04-26T00:21:10;5.47;75.61
68177;DHT22;56478;50.982;7.032;2023-04-26T00:23:36;5.47;75.60
68177;DHT22;56478;50.982;7.032;2023-04-26T00:26:02;5.47;74.94
68177;DHT22;56478;50.982;7.032;2023-04-26T00:28:28;5.37;75.20
68177;DHT22;56478;50.982;7.032;2023-04-26T00:30:53;5.34;75.37
68177;DHT22;56478;50.982;7.032;2023-04-26T00:33:22;5.34;75.93
68177;DHT22;56478;50.982;7.032;2023-04-26T00:35:48;5.38;75.70
68177;DHT22;56478;50.982;7.032;2023-04-26T00:38:13;5.36;74.77
68177;DHT22;56478;50.982;7.032;2023-04-26T00:40:39;5.33;74.80
68177;DHT22;56478;50.982;7.032;2023-04-26T00:43:05;5.29;75.21
68177;DHT22;56478;50.982;7.032;2023-04-26T00:45:30;5.16;74.73
68177;DHT22;56478;50.982;7.032;2023-04-26T00:48:00;5.16;74.84
68177;DHT22;56478;50.982;7.032;2023-04-26T00:50:26;5.15;75.04
68177;DHT22;56478;50.982;7.032;2023-04-26T00:52:51;5.09;74.82
68177;DHT22;56478;50.982;7.032;2023-04-26T00:55:17;4.99;75.40
68177;DHT22;56478;50.982;7.032;2023-04-26T00:57:45;4.93;76.01
68177;DHT22;56478;50.982;7.032;2023-04-26T01:00:11;4.93;75.40
68177;DHT22;56478;50.982;7.032;2023-04-26T01:02:37;4.89;75.76
68177;DHT22;56478;50.982;7.032;2023-04-26T01:05:03;4.89;75.65
68177;DHT22;56478;50.982;7.032;2023-04-26T01:07:30;4.88;75.60
68177;DHT22;56478;50.982;7.032;2023-04-26T01:09:57;4.89;76.23
68177;DHT22;56478;50.982;7.032;2023-04-26T01:12:23;4.81;75.77
68177;DHT22;56478;50.982;7.032;2023-04-26T01:14:49;4.75;75.77
68177;DHT22;56478;50.982;7.032;2023-04-26T01:17:15;4.74;75.73
68177;DHT22;56478;50.982;7.032;2023-04-26T01:19:47;4.75;75.97
68177;DHT22;56478;50.982;7.032;2023-04-26T01:22:13;4.75;76.54
68177;DHT22;56478;50.982;7.032;2023-04-26T01:24:40;4.74;75.88
68177;DHT22;56478;50.982;7.032;2023-04-26T01:27:06;4.74;76.53
68177;DHT22;56478;50.982;7.032;2023-04-26T01:29:32;4.67;76.19
68177;DHT22;56478;50.982;7.032;2023-04-26T01:31:58;4.65;75.74
68177;DHT22;56478;50.982;7.032;2023-04-26T01:34:23;4.61;75.94
68177;DHT22;56478;50.982;7.032;2023-04-26T01:36:49;4.58;76.50
68177;DHT22;56478;50.982;7.032;2023-04-26T01:39:14;4.60;76.44
68177;DHT22;56478;50.982;7.032;2023-04-26T01:41:40;4.53;76.57
68177;DHT22;56478;50.982;7.032;2023-04-26T01:44:05;4.49;76.81
68177;DHT22;56478;50.982;7.032;2023-04-26T01:46:31;4.44;77.51
68177;DHT22;56478;50.982;7.032;2023-04-26T01:48:56;4.47;77.53
68177;DHT22;56478;50.982;7.032;2023-04-26T01:51:22;4.44;77.31
68177;DHT22;56478;50.982;7.032;2023-04-26T01:53:47;4.41;77.19
68177;DHT22;56478;50.982;7.032;2023-04-26T01:56:13;4.39;76.92
68177;DHT22;56478;50.982;7.032;2023-04-26T01:58:38;4.39;77.12
68177;DHT22;56478;50.982;7.032;2023-04-26T02:01:06;4.34;77.67
68177;DHT22;56478;50.982;7.032;2023-04-26T02:03:32;4.26;77.42
68177;DHT22;56478;50.982;7.032;2023-04-26T02:05:57;4.22;77.47
68177;DHT22;56478;50.982;7.032;2023-04-26T02:08:23;4.25;77.74
68177;DHT22;56478;50.982;7.032;2023-04-26T02:10:48;4.19;77.98
68177;DHT22;56478;50.982;7.032;2023-04-26T02:13:14;4.16;78.05
68177;DHT22;56478;50.982;7.032;2023-04-26T02:15:39;4.13;77.80
68177;DHT22;56478;50.982;7.032;2023-04-26T02:18:05;4.12;77.85
68177;DHT22;56478;50.982;7.032;2023-04-26T02:20:31;4.15;77.85
68177;DHT22;56478;50.982;7.032;2023-04-26T02:22:56;4.06;77.67
68177;DHT22;56478;50.982;7.032;2023-04-26T02:25:22;4.03;77.85
68177;DHT22;56478;50.982;7.032;2023-04-26T02:27:47;3.99;77.58
68177;DHT22;56478;50.982;7.032;2023-04-26T02:30:13;3.91;77.82
68177;DHT22;56478;50.982;7.032;2023-04-26T02:32:38;3.87;77.31
68177;DHT22;56478;50.982;7.032;2023-04-26T02:35:04;3.77;77.51
68177;DHT22;56478;50.982;7.032;2023-04-26T02:37:31;3.75;78.41
68177;DHT22;56478;50.982;7.032;2023-04-26T02:39:57;3.74;78.19
68177;DHT22;56478;50.982;7.032;2023-04-26T02:42:23;3.70;77.75
68177;DHT22;56478;50.982;7.032;2023-04-26T02:44:49;3.64;78.00
68177;DHT22;56478;50.982;7.032;2023-04-26T02:47:14;3.66;78.00
68177;DHT22;56478;50.982;7.032;2023-04-26T02:49:40;3.70;78.27
68177;DHT22;56478;50.982;7.032;2023-04-26T02:52:06;3.70;77.98
68177;DHT22;56478;50.982;7.032;2023-04-26T02:54:31;3.67;77.83
68177;DHT22;56478;50.982;7.032;2023-04-26T02:56:57;3.70;77.66
68177;DHT22;56478;50.982;7.032;2023-04-26T02:59:25;3.69;78.42
68177;DHT22;56478;50.982;7.032;2023-04-26T03:01:51;3.69;78.95
68177;DHT22;56478;50.982;7.032;2023-04-26T03:04:17;3.67;79.12
68177;DHT22;56478;50.982;7.032;2023-04-26T03:06:42;3.64;79.36
68177;DHT22;56478;50.982;7.032;2023-04-26T03:09:07;3.61;79.36
68177;DHT22;56478;50.982;7.032;2023-04-26T03:11:33;3.63;79.77
68177;DHT22;56478;50.982;7.032;2023-04-26T03:13:59;3.63;79.37
68177;DHT22;56478;50.982;7.032;2023-04-26T03:16:26;3.59;79.63
68177;DHT22;56478;50.982;7.032;2023-04-26T03:18:52;3.64;79.55
68177;DHT22;56478;50.982;7.032;2023-04-26T03:21:18;3.63;79.54
68177;DHT22;56478;50.982;7.032;2023-04-26T03:23:44;3.60;79.13
68177;DHT22;56478;50.982;7.032;2023-04-26T03:26:11;3.59;79.01
68177;DHT22;56478;50.982;7.032;2023-04-26T03:28:37;3.54;78.93
68177;DHT22;56478;50.982;7.032;2023-04-26T03:31:02;3.54;79.17
68177;DHT22;56478;50.982;7.032;2023-04-26T03:33:29;3.57;79.12
68177;DHT22;56478;50.982;7.032;2023-04-26T03:35:55;3.49;78.74
68177;DHT22;56478;50.982;7.032;2023-04-26T03:38:21;3.49;78.94
68177;DHT22;56478;50.982;7.032;2023-04-26T03:40:48;3.47;78.62
68177;DHT22;56478;50.982;7.032;2023-04-26T03:43:13;3.43;78.21
68177;DHT22;56478;50.982;7.032;2023-04-26T03:45:38;3.40;78.35
68177;DHT22;56478;50.982;7.032;2023-04-26T03:48:04;3.39;78.28
68177;DHT22;56478;50.982;7.032;2023-04-26T03:50:30;3.37;78.35
68177;DHT22;56478;50.982;7.032;2023-04-26T03:52:55;3.29;78.32
68177;DHT22;56478;50.982;7.032;2023-04-26T03:55:21;3.30;78.23
68177;DHT22;56478;50.982;7.032;2023-04-26T03:57:46;3.23;78.31
68177;DHT22;56478;50.982;7.032;2023-04-26T04:00:12;3.20;78.45
68177;DHT22;56478;50.982;7.032;2023-04-26T04:02:40;3.16;78.80
68177;DHT22;56478;50.982;7.032;2023-04-26T04:05:05;3.12;78.43
68177;DHT22;56478;50.982;7.032;2023-04-26T04:07:32;3.08;78.51
68177;DHT22;56478;50.982;7.032;2023-04-26T04:09:58;3.05;78.88
68177;DHT22;56478;50.982;7.032;2023-04-26T04:12:24;3.02;79.20
68177;DHT22;56478;50.982;7.032;2023-04-26T04:14:49;3.08;79.05
68177;DHT22;56478;50.982;7.032;2023-04-26T04:17:14;3.12;79.32
68177;DHT22;56478;50.982;7.032;2023-04-26T04:19:40;3.08;79.10
68177;DHT22;56478;50.982;7.032;2023-04-26T04:22:06;3.04;78.72
68177;DHT22;56478;50.982;7.032;2023-04-26T04:24:31;3.04;79.01
68177;DHT22;56478;50.982;7.032;2023-04-26T04:26:57;3.08;79.09
68177;DHT22;56478;50.982;7.032;2023-04-26T04:29:22;3.11;79.38
68177;DHT22;56478;50.982;7.032;2023-04-26T04:31:48;3.15;79.50
68177;DHT22;56478;50.982;7.032;2023-04-26T04:34:13;3.18;79.59
68177;DHT22;56478;50.982;7.032;2023-04-26T04:36:40;3.18;79.28
68177;DHT22;56478;50.982;7.032;2023-04-26T04:39:06;3.18;79.58
68177;DHT22;56478;50.982;7.032;2023-04-26T04:41:37;3.22;79.14
68177;DHT22;56478;50.982;7.032;2023-04-26T04:44:04;3.20;79.11
68177;DHT22;56478;50.982;7.032;2023-04-26T04:46:29;3.25;79.55
68177;DHT22;56478;50.982;7.032;2023-04-26T04:48:55;3.30;79.49
68177;DHT22;56478;50.982;7.032;2023-04-26T04:51:20;3.30;79.06
68177;DHT22;56478;50.982;7.032;2023-04-26T04:53:46;3.32;78.97
68177;DHT22;56478;50.982;7.032;2023-04-26T04:56:11;3.40;79.04
68177;DHT22;56478;50.982;7.032;2023-04-26T04:58:37;3.40;78.95
68177;DHT22;56478;50.982;7.032;2023-04-26T05:01:02;3.40;78.86
68177;DHT22;56478;50.982;7.032;2023-04-26T05:03:28;3.44;78.45
68177;DHT22;56478;50.982;7.032;2023-04-26T05:05:54;3.42;78.55
68177;DHT22;56478;50.982;7.032;2023-04-26T05:08:19;3.50;78.43
68177;DHT22;56478;50.982;7.032;2023-04-26T05:10:45;3.61;78.32
68177;DHT22;56478;50.982;7.032;2023-04-26T05:13:10;3.74;78.90
68177;DHT22;56478;50.982;7.032;2023-04-26T05:15:36;3.74;78.24
68177;DHT22;56478;50.982;7.032;2023-04-26T05:18:01;3.84;77.73
68177;DHT22;56478;50.982;7.032;2023-04-26T05:20:27;3.88;77.71
68177;DHT22;56478;50.982;7.032;2023-04-26T05:22:53;4.03;77.17
68177;DHT22;56478;50.982;7.032;2023-04-26T05:25:19;4.19;76.67
68177;DHT22;56478;50.982;7.032;2023-04-26T05:27:45;4.26;76.77
68177;DHT22;56478;50.982;7.032;2023-04-26T05:30:11;4.34;76.62
68177;DHT22;56478;50.982;7.032;2023-04-26T05:32:37;4.49;76.57
68177;DHT22;56478;50.982;7.032;2023-04-26T05:35:02;4.56;75.95
68177;DHT22;56478;50.982;7.032;2023-04-26T05:37:29;4.64;75.97
68177;DHT22;56478;50.982;7.032;2023-04-26T05:39:56;4.85;75.41
68177;DHT22;56478;50.982;7.032;2023-04-26T05:42:21;5.22;74.45
68177;DHT22;56478;50.982;7.032;2023-04-26T05:44:47;5.38;73.72
68177;DHT22;56478;50.982;7.032;2023-04-26T05:47:12;5.24;73.33
68177;DHT22;56478;50.982;7.032;2023-04-26T05:49:38;5.18;74.09
68177;DHT22;56478;50.982;7.032;2023-04-26T05:52:04;5.20;74.01
68177;DHT22;56478;50.982;7.032;2023-04-26T05:54:29;5.34;74.04
68177;DHT22;56478;50.982;7.032;2023-04-26T05:56:55;5.46;74.15
68177;DHT22;56478;50.982;7.032;2023-04-26T05:59:21;5.86;73.19
68177;DHT22;56478;50.982;7.032;2023-04-26T06:01:46;5.95;72.39
68177;DHT22;56478;50.982;7.032;2023-04-26T06:04:12;6.46;71.18
68177;DHT22;56478;50.982;7.032;2023-04-26T06:06:37;6.76;70.04
68177;DHT22;56478;50.982;7.032;2023-04-26T06:09:03;7.36;68.02
68177;DHT22;56478;50.982;7.032;2023-04-26T06:11:29;7.69;67.16
68177;DHT22;56478;50.982;7.032;2023-04-26T06:13:55;8.22;65.82
68177;DHT22;56478;50.982;7.032;2023-04-26T06:16:21;8.79;64.07
68177;DHT22;56478;50.982;7.032;2023-04-26T06:18:47;9.87;60.72
68177;DHT22;56478;50.982;7.032;2023-04-26T06:21:13;10.70;58.51
68177;DHT22;56478;50.982;7.032;2023-04-26T06:23:38;11.52;56.90
68177;DHT22;56478;50.982;7.032;2023-04-26T06:26:04;12.30;54.23
68177;DHT22;56478;50.982;7.032;2023-04-26T06:28:29;12.92;51.97
68177;DHT22;56478;50.982;7.032;2023-04-26T06:30:55;13.19;51.12
68177;DHT22;56478;50.982;7.032;2023-04-26T06:33:21;13.94;49.51
68177;DHT22;56478;50.982;7.032;2023-04-26T06:35:46;14.89;47.59
68177;DHT22;56478;50.982;7.032;2023-04-26T06:38:12;14.75;46.59
68177;DHT22;56478;50.982;7.032;2023-04-26T06:40:37;15.89;43.27
68177;DHT22;56478;50.982;7.032;2023-04-26T06:43:03;16.43;43.18
68177;DHT22;56478;50.982;7.032;2023-04-26T06:45:29;17.00;40.84
68177;DHT22;56478;50.982;7.032;2023-04-26T06:47:55;16.96;41.41
68177;DHT22;56478;50.982;7.032;2023-04-26T06:50:21;17.19;41.22
68177;DHT22;56478;50.982;7.032;2023-04-26T06:52:47;17.00;40.52
68177;DHT22;56478;50.982;7.032;2023-04-26T06:55:12;16.55;42.28
68177;DHT22;56478;50.982;7.032;2023-04-26T06:57:37;16.40;43.20
68177;DHT22;56478;50.982;7.032;2023-04-26T07:00:03;17.38;40.48
68177;DHT22;56478;50.982;7.032;2023-04-26T07:02:30;18.90;38.42
68177;DHT22;56478;50.982;7.032;2023-04-26T07:04:55;19.75;36.03
68177;DHT22;56478;50.982;7.032;2023-04-26T07:07:21;19.03;37.58
68177;DHT22;56478;50.982;7.032;2023-04-26T07:09:47;18.13;39.97
68177;DHT22;56478;50.982;7.032;2023-04-26T07:12:13;17.74;39.29
68177;DHT22;56478;50.982;7.032;2023-04-26T07:14:39;17.48;40.65
68177;DHT22;56478;50.982;7.032;2023-04-26T07:17:09;17.48;39.85
68177;DHT22;56478;50.982;7.032;2023-04-26T07:19:34;17.62;39.14
68177;DHT22;56478;50.982;7.032;2023-04-26T07:22:00;17.48;39.68
68177;DHT22;56478;50.982;7.032;2023-04-26T07:24:26;17.54;39.41
68177;DHT22;56478;50.982;7.032;2023-04-26T07:26:52;17.87;38.62
68177;DHT22;56478;50.982;7.032;2023-04-26T07:29:17;17.76;38.30
68177;DHT22;56478;50.982;7.032;2023-04-26T07:31:44;16.93;40.56
68177;DHT22;56478;50.982;7.032;2023-04-26T07:34:10;16.60;41.92
68177;DHT22;56478;50.982;7.032;2023-04-26T07:36:35;16.45;42.26
68177;DHT22;56478;50.982;7.032;2023-04-26T07:39:01;17.55;39.88
68177;DHT22;56478;50.982;7.032;2023-04-26T07:41:27;18.95;37.52
68177;DHT22;56478;50.982;7.032;2023-04-26T07:43:52;18.03;38.89
68177;DHT22;56478;50.982;7.032;2023-04-26T07:46:18;17.75;38.99
68177;DHT22;56478;50.982;7.032;2023-04-26T07:48:44;16.78;41.36
68177;DHT22;56478;50.982;7.032;2023-04-26T07:51:10;16.78;41.56
68177;DHT22;56478;50.982;7.032;2023-04-26T07:53:36;16.08;42.66
68177;DHT22;56478;50.982;7.032;2023-04-26T07:56:06;16.58;40.99
68177;DHT22;56478;50.982;7.032;2023-04-26T07:58:37;16.52;42.53
68177;DHT22;56478;50.982;7.032;2023-04-26T08:01:06;15.59;43.34
68177;DHT22;56478;50.982;7.032;2023-04-26T08:03:32;14.60;46.11
68177;DHT22;56478;50.982;7.032;2023-04-26T08:05:57;14.36;46.03
68177;DHT22;56478;50.982;7.032;2023-04-26T08:08:26;13.97;46.39
68177;DHT22;56478;50.982;7.032;2023-04-26T08:10:52;13.75;46.47
68177;DHT22;56478;50.982;7.032;2023-04-26T08:13:18;13.78;46.16
68177;DHT22;56478;50.982;7.032;2023-04-26T08:15:43;13.77;45.31
68177;DHT22;56478;50.982;7.032;2023-04-26T08:18:09;14.98;42.86
68177;DHT22;56478;50.982;7.032;2023-04-26T08:20:35;14.92;42.40
68177;DHT22;56478;50.982;7.032;2023-04-26T08:23:00;14.63;43.47
68177;DHT22;56478;50.982;7.032;2023-04-26T08:25:26;14.36;44.25
68177;DHT22;56478;50.982;7.032;2023-04-26T08:27:52;14.72;44.91
68177;DHT22;56478;50.982;7.032;2023-04-26T08:30:18;14.48;41.84
68177;DHT22;56478;50.982;7.032;2023-04-26T08:32:44;14.88;42.57
68177;DHT22;56478;50.982;7.032;2023-04-26T08:35:10;15.57;40.32
68177;DHT22;56478;50.982;7.032;2023-04-26T08:37:36;15.61;40.93
68177;DHT22;56478;50.982;7.032;2023-04-26T08:40:06;16.48;38.67
68177;DHT22;56478;50.982;7.032;2023-04-26T08:42:41;15.96;39.42
68177;DHT22;56478;50.982;7.032;2023-04-26T08:45:09;15.79;40.77
68177;DHT22;56478;50.982;7.032;2023-04-26T08:50:09;15.85;41.51
68177;DHT22;56478;50.982;7.032;2023-04-26T08:52:35;15.79;39.32
68177;DHT22;56478;50.982;7.032;2023-04-26T08:55:04;14.99;40.76
68177;DHT22;56478;50.982;7.032;2023-04-26T08:57:30;14.56;41.64
68177;DHT22;56478;50.982;7.032;2023-04-26T08:59:57;14.56;43.33
68177;DHT22;56478;50.982;7.032;2023-04-26T09:02:23;14.88;42.33
68177;DHT22;56478;50.982;7.032;2023-04-26T09:04:50;14.78;43.41
68177;DHT22;56478;50.982;7.032;2023-04-26T09:07:30;15.57;41.17
68177;DHT22;56478;50.982;7.032;2023-04-26T09:09:57;15.89;39.30
68177;DHT22;56478;50.982;7.032;2023-04-26T09:12:24;15.41;39.57
68177;DHT22;56478;50.982;7.032;2023-04-26T09:14:50;14.86;40.45
68177;DHT22;56478;50.982;7.032;2023-04-26T09:17:32;14.64;40.30
68177;DHT22;56478;50.982;7.032;2023-04-26T09:19:59;15.36;39.91
68177;DHT22;56478;50.982;7.032;2023-04-26T09:22:35;16.72;36.59
68177;DHT22;56478;50.982;7.032;2023-04-26T09:25:04;17.32;34.55
68177;DHT22;56478;50.982;7.032;2023-04-26T09:27:33;17.26;36.25
68177;DHT22;56478;50.982;7.032;2023-04-26T09:30:08;17.21;35.86
68177;DHT22;56478;50.982;7.032;2023-04-26T09:32:59;17.34;37.47
68177;DHT22;56478;50.982;7.032;2023-04-26T09:35:35;18.23;32.19
68177;DHT22;56478;50.982;7.032;2023-04-26T09:43:03;17.26;36.14
68177;DHT22;56478;50.982;7.032;2023-04-26T09:45:31;17.75;33.61
68177;DHT22;56478;50.982;7.032;2023-04-26T09:48:35;18.92;33.31
68177;DHT22;56478;50.982;7.032;2023-04-26T09:53:35;17.89;32.54
68177;DHT22;56478;50.982;7.032;2023-04-26T09:56:09;16.68;35.54
68177;DHT22;56478;50.982;7.032;2023-04-26T09:58:37;15.96;37.99
68177;DHT22;56478;50.982;7.032;2023-04-26T10:01:03;16.02;37.23
68177;DHT22;56478;50.982;7.032;2023-04-26T10:03:29;16.78;35.58
68177;DHT22;56478;50.982;7.032;2023-04-26T10:05:58;17.82;34.24
68177;DHT22;56478;50.982;7.032;2023-04-26T10:08:23;18.24;29.77
68177;DHT22;56478;50.982;7.032;2023-04-26T10:10:49;17.13;31.55
68177;DHT22;56478;50.982;7.032;2023-04-26T10:13:17;17.72;30.85
68177;DHT22;56478;50.982;7.032;2023-04-26T10:15:45;17.44;32.14
68177;DHT22;56478;50.982;7.032;2023-04-26T10:18:11;18.14;32.60
68177;DHT22;56478;50.982;7.032;2023-04-26T10:20:43;19.30;29.44
68177;DHT22;56478;50.982;7.032;2023-04-26T10:23:17;18.11;30.02
68177;DHT22;56478;50.982;7.032;2023-04-26T10:25:45;18.34;30.56
68177;DHT22;56478;50.982;7.032;2023-04-26T10:28:11;18.76;31.93
68177;DHT22;56478;50.982;7.032;2023-04-26T10:30:58;19.15;30.06
68177;DHT22;56478;50.982;7.032;2023-04-26T10:33:24;20.25;28.47
68177;DHT22;56478;50.982;7.032;2023-04-26T10:38:28;19.30;28.67
68177;DHT22;56478;50.982;7.032;2023-04-26T10:40:54;21.10;28.53
68177;DHT22;56478;50.982;7.032;2023-04-26T10:43:27;22.97;26.73
68177;DHT22;56478;50.982;7.032;2023-04-26T10:45:52;23.49;25.64
68177;DHT22;56478;50.982;7.032;2023-04-26T10:55:57;21.93;28.44
68177;DHT22;56478;50.982;7.032;2023-04-26T10:58:30;22.11;27.22
68177;DHT22;56478;50.982;7.032;2023-04-26T11:03:33;22.14;27.81
68177;DHT22;56478;50.982;7.032;2023-04-26T11:05:58;21.97;26.23
68177;DHT22;56478;50.982;7.032;2023-04-26T11:10:56;20.84;27.86
68177;DHT22;56478;50.982;7.032;2023-04-26T11:13:21;19.75;29.19
68177;DHT22;56478;50.982;7.032;2023-04-26T11:15:58;18.82;31.74
68177;DHT22;56478;50.982;7.032;2023-04-26T11:18:24;18.90;29.96
68177;DHT22;56478;50.982;7.032;2023-04-26T11:20:50;18.11;31.21
68177;DHT22;56478;50.982;7.032;2023-04-26T11:23:17;17.92;32.67
68177;DHT22;56478;50.982;7.032;2023-04-26T11:25:43;18.54;30.35
68177;DHT22;56478;50.982;7.032;2023-04-26T11:28:09;17.71;33.38
68177;DHT22;56478;50.982;7.032;2023-04-26T11:30:34;17.64;35.52
68177;DHT22;56478;50.982;7.032;2023-04-26T11:33:02;17.26;33.28
68177;DHT22;56478;50.982;7.032;2023-04-26T11:35:34;17.37;34.48
68177;DHT22;56478;50.982;7.032;2023-04-26T11:38:03;17.23;33.81
68177;DHT22;56478;50.982;7.032;2023-04-26T11:40:31;16.95;33.15
68177;DHT22;56478;50.982;7.032;2023-04-26T11:43:00;16.89;33.35
68177;DHT22;56478;50.982;7.032;2023-04-26T11:45:27;17.14;35.40
68177;DHT22;56478;50.982;7.032;2023-04-26T11:47:52;17.16;32.64
68177;DHT22;56478;50.982;7.032;2023-04-26T11:50:19;17.26;32.20
68177;DHT22;56478;50.982;7.032;2023-04-26T11:52:47;16.92;32.76
68177;DHT22;56478;50.982;7.032;2023-04-26T11:55:12;17.47;35.02
68177;DHT22;56478;50.982;7.032;2023-04-26T11:57:38;17.49;32.46
68177;DHT22;56478;50.982;7.032;2023-04-26T12:00:14;17.38;31.80
68177;DHT22;56478;50.982;7.032;2023-04-26T12:02:46;16.89;31.51
68177;DHT22;56478;50.982;7.032;2023-04-26T12:05:26;16.78;33.00
68177;DHT22;56478;50.982;7.032;2023-04-26T12:07:56;17.40;32.79
68177;DHT22;56478;50.982;7.032;2023-04-26T12:10:27;17.27;34.36
68177;DHT22;56478;50.982;7.032;2023-04-26T12:12:54;17.61;32.93
68177;DHT22;56478;50.982;7.032;2023-04-26T12:15:39;17.54;35.86
68177;DHT22;56478;50.982;7.032;2023-04-26T12:18:09;17.40;32.53
68177;DHT22;56478;50.982;7.032;2023-04-26T12:20:36;16.73;32.91
68177;DHT22;56478;50.982;7.032;2023-04-26T12:23:04;16.89;33.38
68177;DHT22;56478;50.982;7.032;2023-04-26T12:25:40;16.79;33.92
68177;DHT22;56478;50.982;7.032;2023-04-26T12:28:15;16.57;34.79
68177;DHT22;56478;50.982;7.032;2023-04-26T12:30:41;16.82;36.49
68177;DHT22;56478;50.982;7.032;2023-04-26T12:33:06;17.26;33.00
68177;DHT22;56478;50.982;7.032;2023-04-26T12:35:40;17.05;32.41
68177;DHT22;56478;50.982;7.032;2023-04-26T12:38:14;16.83;33.67
68177;DHT22;56478;50.982;7.032;2023-04-26T12:40:41;17.02;33.87
68177;DHT22;56478;50.982;7.032;2023-04-26T12:43:07;17.28;33.43
68177;DHT22;56478;50.982;7.032;2023-04-26T12:45:33;17.31;34.89
68177;DHT22;56478;50.982;7.032;2023-04-26T12:47:58;17.10;33.12
68177;DHT22;56478;50.982;7.032;2023-04-26T12:50:24;16.95;35.54
68177;DHT22;56478;50.982;7.032;2023-04-26T12:52:50;16.88;36.82
68177;DHT22;56478;50.982;7.032;2023-04-26T12:55:16;17.00;34.30
68177;DHT22;56478;50.982;7.032;2023-04-26T12:57:42;16.95;34.99
68177;DHT22;56478;50.982;7.032;2023-04-26T13:00:10;17.06;33.82
68177;DHT22;56478;50.982;7.032;2023-04-26T13:02:36;16.89;35.50
68177;DHT22;56478;50.982;7.032;2023-04-26T13:05:02;16.85;34.85
68177;DHT22;56478;50.982;7.032;2023-04-26T13:07:30;17.28;34.35
68177;DHT22;56478;50.982;7.032;2023-04-26T13:09:55;17.24;33.28
68177;DHT22;56478;50.982;7.032;2023-04-26T13:12:22;16.55;34.66
68177;DHT22;56478;50.982;7.032;2023-04-26T13:14:47;16.37;35.51
68177;DHT22;56478;50.982;7.032;2023-04-26T13:17:13;16.86;34.07
68177;DHT22;56478;50.982;7.032;2023-04-26T13:19:39;17.09;33.35
68177;DHT22;56478;50.982;7.032;2023-04-26T13:22:04;16.97;33.70
68177;DHT22;56478;50.982;7.032;2023-04-26T13:24:33;16.90;35.90
68177;DHT22;56478;50.982;7.032;2023-04-26T13:26:59;17.05;32.54
68177;DHT22;56478;50.982;7.032;2023-04-26T13:29:25;16.78;33.38
68177;DHT22;56478;50.982;7.032;2023-04-26T13:31:51;16.80;36.39
68177;DHT22;56478;50.982;7.032;2023-04-26T13:34:16;16.43;37.01
68177;DHT22;56478;50.982;7.032;2023-04-26T13:36:43;16.09;38.37
68177;DHT22;56478;50.982;7.032;2023-04-26T13:39:08;15.59;37.77
68177;DHT22;56478;50.982;7.032;2023-04-26T13:41:34;15.20;36.66
68177;DHT22;56478;50.982;7.032;2023-04-26T13:44:01;15.30;37.01
68177;DHT22;56478;50.982;7.032;2023-04-26T13:46:27;15.43;37.06
68177;DHT22;56478;50.982;7.032;2023-04-26T13:48:53;15.44;35.78
68177;DHT22;56478;50.982;7.032;2023-04-26T13:51:20;15.69;37.86
68177;DHT22;56478;50.982;7.032;2023-04-26T13:53:46;15.69;35.28
68177;DHT22;56478;50.982;7.032;2023-04-26T13:56:19;15.83;35.68
68177;DHT22;56478;50.982;7.032;2023-04-26T13:58:47;15.92;34.58
68177;DHT22;56478;50.982;7.032;2023-04-26T14:01:13;15.41;35.43
68177;DHT22;56478;50.982;7.032;2023-04-26T14:03:39;15.50;38.08
68177;DHT22;56478;50.982;7.032;2023-04-26T14:06:06;15.58;36.49
68177;DHT22;56478;50.982;7.032;2023-04-26T14:08:31;15.62;35.22
68177;DHT22;56478;50.982;7.032;2023-04-26T14:10:57;15.31;36.85
68177;DHT22;56478;50.982;7.032;2023-04-26T14:13:23;15.18;36.10
68177;DHT22;56478;50.982;7.032;2023-04-26T14:15:49;15.26;36.80
68177;DHT22;56478;50.982;7.032;2023-04-26T14:18:15;15.46;36.22
68177;DHT22;56478;50.982;7.032;2023-04-26T14:20:41;15.68;35.87
68177;DHT22;56478;50.982;7.032;2023-04-26T14:23:06;15.64;34.97
68177;DHT22;56478;50.982;7.032;2023-04-26T14:25:32;15.81;34.93
68177;DHT22;56478;50.982;7.032;2023-04-26T14:27:57;15.96;37.09
68177;DHT22;56478;50.982;7.032;2023-04-26T14:30:24;15.99;35.56
68177;DHT22;56478;50.982;7.032;2023-04-26T14:32:55;16.16;34.84
68177;DHT22;56478;50.982;7.032;2023-04-26T14:35:24;16.10;36.46
68177;DHT22;56478;50.982;7.032;2023-04-26T14:37:52;16.03;35.54
68177;DHT22;56478;50.982;7.032;2023-04-26T14:40:26;16.08;34.28
68177;DHT22;56478;50.982;7.032;2023-04-26T14:42:55;16.21;34.10
68177;DHT22;56478;50.982;7.032;2023-04-26T14:45:20;15.74;35.74
68177;DHT22;56478;50.982;7.032;2023-04-26T14:47:46;15.79;35.77
68177;DHT22;56478;50.982;7.032;2023-04-26T14:50:11;15.91;36.71
68177;DHT22;56478;50.982;7.032;2023-04-26T14:52:39;15.96;34.82
68177;DHT22;56478;50.982;7.032;2023-04-26T14:55:05;15.74;37.89
68177;DHT22;56478;50.982;7.032;2023-04-26T14:57:31;15.39;36.51
68177;DHT22;56478;50.982;7.032;2023-04-26T14:59:57;15.16;36.63
68177;DHT22;56478;50.982;7.032;2023-04-26T15:02:30;15.05;37.58
68177;DHT22;56478;50.982;7.032;2023-04-26T15:04:56;14.95;37.05
68177;DHT22;56478;50.982;7.032;2023-04-26T15:07:21;14.84;37.18
68177;DHT22;56478;50.982;7.032;2023-04-26T15:09:47;14.69;38.82
68177;DHT22;56478;50.982;7.032;2023-04-26T15:12:13;14.98;37.30
68177;DHT22;56478;50.982;7.032;2023-04-26T15:14:39;15.03;36.91
68177;DHT22;56478;50.982;7.032;2023-04-26T15:17:04;14.96;36.17
68177;DHT22;56478;50.982;7.032;2023-04-26T15:19:30;15.00;37.32
68177;DHT22;56478;50.982;7.032;2023-04-26T15:21:56;15.19;36.08
68177;DHT22;56478;50.982;7.032;2023-04-26T15:24:22;15.26;37.61
68177;DHT22;56478;50.982;7.032;2023-04-26T15:26:48;15.31;36.42
68177;DHT22;56478;50.982;7.032;2023-04-26T15:29:13;15.53;34.42
68177;DHT22;56478;50.982;7.032;2023-04-26T15:31:39;15.50;34.40
68177;DHT22;56478;50.982;7.032;2023-04-26T15:34:04;15.50;33.47
68177;DHT22;56478;50.982;7.032;2023-04-26T15:36:30;15.33;35.80
68177;DHT22;56478;50.982;7.032;2023-04-26T15:38:56;15.23;35.10
68177;DHT22;56478;50.982;7.032;2023-04-26T15:41:21;14.92;35.51
68177;DHT22;56478;50.982;7.032;2023-04-26T15:43:52;14.71;36.08
68177;DHT22;56478;50.982;7.032;2023-04-26T15:46:19;14.68;35.36
68177;DHT22;56478;50.982;7.032;2023-04-26T15:48:46;14.50;36.09
68177;DHT22;56478;50.982;7.032;2023-04-26T15:51:11;14.67;39.69
68177;DHT22;56478;50.982;7.032;2023-04-26T15:53:37;14.71;37.41
68177;DHT22;56478;50.982;7.032;2023-04-26T15:56:03;14.71;38.25
68177;DHT22;56478;50.982;7.032;2023-04-26T15:58:37;14.63;37.03
68177;DHT22;56478;50.982;7.032;2023-04-26T16:01:02;14.34;38.05